createdAt,value
2022-11-29T00:03:18.842Z,100.00
2022-11-29T00:08:23.981Z,99.69
2022-11-29T00:13:27.060Z,99.64
2022-11-29T00:18:30.542Z,98.99
2022-11-29T00:23:34.018Z,98.78
2022-11-29T00:28:38.125Z,98.49
2022-11-29T00:33:41.708Z,98.03
2022-11-29T00:38:45.641Z,98.04
2022-11-29T00:43:49.656Z,98.05
2022-11-29T00:48:52.724Z,98.13
2022-11-29T00:53:56.326Z,97.81
2022-11-29T00:58:59.416Z,98.05
2022-11-29T01:04:02.991Z,97.72
2022-11-29T01:09:06.402Z,98.10
2022-11-29T01:14:12.754Z,98.18
2022-11-29T01:19:16.889Z,97.99
2022-11-29T01:24:22.565Z,97.89
2022-11-29T01:29:25.668Z,98.19
2022-11-29T01:34:28.808Z,98.05
2022-11-29T01:39:33.017Z,98.00
2022-11-29T01:44:36.665Z,98.08
2022-11-29T01:49:44.998Z,98.10
2022-11-29T01:54:51.782Z,98.07
2022-11-29T02:00:08.879Z,98.29
2022-11-29T02:05:20.458Z,98.36
2022-11-29T02:10:33.809Z,98.99
2022-11-29T02:16:03.969Z,99.00
2022-11-29T02:21:15.272Z,99.11
2022-11-29T02:26:59.390Z,98.79
2022-11-29T02:32:21.909Z,98.90
2022-11-29T02:37:53.918Z,98.91
2022-11-29T02:43:19.635Z,99.02
2022-11-29T02:48:51.653Z,99.19
2022-11-29T02:54:13.540Z,99.33
2022-11-29T02:59:30.318Z,99.48
2022-11-29T03:04:45.667Z,99.60
2022-11-29T03:09:58.193Z,100.00
2022-11-29T03:15:20.422Z,100.00
2022-11-29T03:20:32.289Z,100.00
2022-11-29T03:25:51.936Z,100.00
2022-11-29T03:31:20.009Z,100.00
2022-11-29T03:37:04.342Z,100.00
2022-11-29T03:42:20.183Z,100.00
2022-11-29T03:47:31.739Z,100.00
2022-11-29T03:52:43.338Z,100.00
2022-11-29T03:58:09.045Z,100.00
2022-11-29T04:03:33.305Z,100.00
2022-11-29T04:08:44.984Z,100.00
2022-11-29T04:14:22.269Z,100.00
2022-11-29T04:20:00.906Z,100.00
2022-11-29T04:25:27.515Z,100.00
2022-11-29T04:31:00.146Z,100.00
2022-11-29T04:36:35.624Z,100.00
2022-11-29T04:42:12.789Z,100.00
2022-11-29T04:47:55.911Z,100.00
2022-11-29T04:53:13.880Z,100.00
2022-11-29T04:58:27.018Z,100.00
2022-11-29T05:03:59.473Z,100.00
2022-11-29T05:09:09.720Z,100.00
2022-11-29T05:14:27.811Z,100.00
2022-11-29T05:19:43.786Z,100.00
2022-11-29T05:25:01.339Z,100.00
2022-11-29T05:30:12.495Z,100.00
2022-11-29T05:35:34.726Z,100.00
2022-11-29T05:40:52.005Z,100.00
2022-11-29T05:46:19.446Z,100.00
2022-11-29T05:51:37.279Z,100.00
2022-11-29T05:57:05.902Z,100.00
2022-11-29T06:02:29.709Z,100.00
2022-11-29T06:08:03.668Z,100.00
2022-11-29T06:13:31.092Z,100.00
2022-11-29T06:18:59.351Z,100.00
2022-11-29T06:24:38.353Z,100.00
2022-11-29T06:29:47.653Z,100.00
2022-11-29T06:35:11.682Z,100.00
2022-11-29T06:40:16.702Z,100.00
2022-11-29T06:45:22.278Z,100.00
2022-11-29T06:50:49.911Z,100.00
2022-11-29T06:56:21.713Z,100.00
2022-11-29T07:01:35.491Z,100.00
2022-11-29T07:06:39.406Z,100.00
2022-11-29T07:11:43.791Z,100.00
2022-11-29T07:17:11.439Z,100.00
2022-11-29T07:22:35.162Z,100.00
2022-11-29T07:27:55.934Z,100.00
2022-11-29T07:33:17.017Z,100.00
2022-11-29T07:38:26.371Z,100.00
2022-11-29T07:43:54.706Z,100.00
2022-11-29T07:48:57.926Z,100.00
2022-11-29T07:54:02.018Z,100.00
2022-11-29T07:59:05.713Z,100.00
2022-11-29T08:04:09.646Z,100.00
2022-11-29T08:09:13.280Z,100.00
2022-11-29T08:14:16.818Z,100.00
2022-11-29T08:19:20.699Z,100.00
2022-11-29T08:24:24.530Z,100.00
2022-11-29T08:29:28.762Z,100.00
2022-11-29T08:34:32.193Z,100.00
2022-11-29T08:39:35.764Z,100.00
2022-11-29T08:44:39.800Z,100.00
2022-11-29T08:50:01.578Z,100.00
2022-11-29T08:55:05.552Z,100.00
2022-11-29T09:00:10.958Z,100.00
2022-11-29T09:05:15.500Z,100.00
2022-11-29T09:10:18.926Z,100.00
2022-11-29T09:15:22.870Z,100.00
2022-11-29T09:20:26.058Z,100.00
2022-11-29T09:25:30.004Z,100.00
2022-11-29T09:30:35.406Z,100.00
2022-11-29T09:35:39.133Z,100.00
2022-11-29T09:41:08.530Z,100.00
2022-11-29T09:46:23.004Z,100.00
2022-11-29T09:52:00.137Z,100.00
2022-11-29T09:57:10.641Z,100.00
2022-11-29T10:02:22.120Z,100.00
2022-11-29T10:07:47.156Z,100.00
2022-11-29T10:12:56.939Z,100.00
2022-11-29T10:18:19.227Z,100.00
2022-11-29T10:23:40.219Z,100.00
2022-11-29T10:28:45.537Z,100.00
2022-11-29T10:33:50.476Z,100.00
2022-11-29T10:38:59.316Z,100.00
2022-11-29T10:44:02.818Z,100.00
2022-11-29T10:49:11.020Z,100.00
2022-11-29T10:54:26.879Z,100.00
2022-11-29T10:59:32.641Z,100.00
2022-11-29T11:04:44.724Z,100.00
2022-11-29T11:09:50.797Z,100.00
2022-11-29T11:15:27.008Z,100.00
2022-11-29T11:20:33.192Z,100.00
2022-11-29T11:25:39.531Z,98.16
2022-11-29T11:30:51.591Z,93.46
2022-11-29T11:36:02.982Z,90.68
2022-11-29T11:41:06.747Z,86.79
2022-11-29T11:46:13.962Z,85.49
2022-11-29T11:51:25.800Z,86.20
2022-11-29T11:56:36.189Z,84.25
2022-11-29T12:01:40.057Z,84.58
2022-11-29T12:06:46.100Z,82.30
2022-11-29T12:12:07.371Z,80.74
2022-11-29T12:17:28.418Z,77.47
2022-11-29T12:22:45.164Z,76.18
2022-11-29T12:27:51.982Z,85.65
2022-11-29T12:33:09.462Z,67.54
2022-11-29T12:38:23.574Z,69.68
2022-11-29T12:43:35.059Z,80.07
2022-11-29T12:48:55.166Z,66.58
2022-11-29T12:54:26.726Z,71.02
2022-11-29T12:59:47.802Z,80.60
2022-11-29T13:05:26.224Z,73.48
2022-11-29T13:10:43.061Z,69.34
2022-11-29T13:16:04.055Z,79.00
2022-11-29T13:21:25.110Z,67.08
2022-11-29T13:26:30.245Z,72.22
2022-11-29T13:31:34.041Z,74.34
2022-11-29T13:36:52.380Z,76.91
2022-11-29T13:42:20.336Z,78.88
2022-11-29T13:47:23.931Z,78.48
2022-11-29T13:52:47.226Z,80.49
2022-11-29T13:58:15.353Z,80.88
2022-11-29T14:03:22.643Z,80.72
2022-11-29T14:08:54.564Z,80.07
2022-11-29T14:14:06.389Z,81.31
2022-11-29T14:19:09.649Z,80.49
2022-11-29T14:24:37.637Z,81.40
2022-11-29T14:29:55.765Z,81.62
2022-11-29T14:35:20.799Z,81.05
2022-11-29T14:40:37.198Z,81.23
2022-11-29T14:45:40.616Z,82.56
2022-11-29T14:50:43.758Z,83.79
2022-11-29T14:55:48.580Z,84.27
2022-11-29T15:00:56.463Z,86.33
2022-11-29T15:06:26.234Z,88.50
2022-11-29T15:11:48.405Z,89.35
2022-11-29T15:16:57.540Z,90.05
2022-11-29T15:22:07.655Z,91.21
2022-11-29T15:27:13.968Z,92.03
2022-11-29T15:32:24.428Z,93.06
2022-11-29T15:37:37.631Z,93.93
2022-11-29T15:43:02.809Z,94.04
2022-11-29T15:48:26.145Z,95.28
2022-11-29T15:53:38.927Z,96.21
2022-11-29T15:58:45.198Z,97.46
2022-11-29T16:03:54.043Z,98.45
2022-11-29T16:08:58.589Z,98.95
2022-11-29T16:14:25.815Z,99.39
2022-11-29T16:19:33.843Z,99.05
2022-11-29T16:24:39.753Z,99.67
2022-11-29T16:29:45.729Z,99.86
2022-11-29T16:34:49.167Z,99.27
2022-11-29T16:39:59.941Z,98.55
2022-11-29T16:45:07.799Z,97.38
2022-11-29T16:50:22.277Z,95.86
2022-11-29T16:55:25.312Z,95.86
2022-11-29T17:00:33.833Z,95.76
2022-11-29T17:05:43.141Z,95.84
2022-11-29T17:10:48.581Z,95.36
2022-11-29T17:15:51.727Z,95.24
2022-11-29T17:20:59.834Z,95.37
2022-11-29T17:26:03.257Z,95.46
2022-11-29T17:31:14.087Z,95.83
2022-11-29T17:36:20.303Z,96.09
2022-11-29T17:41:25.093Z,95.92
2022-11-29T17:46:36.663Z,95.71
2022-11-29T17:51:56.436Z,95.97
2022-11-29T17:57:05.115Z,95.75
2022-11-29T18:02:15.027Z,95.76
2022-11-29T18:07:18.709Z,95.48
2022-11-29T18:12:22.954Z,95.53
2022-11-29T18:17:26.092Z,95.33
2022-11-29T18:22:28.974Z,95.42
2022-11-29T18:27:31.885Z,95.10
2022-11-29T18:32:34.879Z,94.97
2022-11-29T18:38:12.912Z,94.58
2022-11-29T18:43:00.783Z,94.38
2022-11-29T18:48:04.838Z,94.48
2022-11-29T18:53:08.240Z,94.28
2022-11-29T18:58:11.554Z,94.34
2022-11-29T19:03:14.477Z,94.41
2022-11-29T19:08:17.609Z,94.38
2022-11-29T19:13:20.636Z,94.45
2022-11-29T19:18:23.922Z,94.38
2022-11-29T19:23:27.293Z,94.68
2022-11-29T19:28:30.743Z,94.86
2022-11-29T19:33:36.150Z,95.42
2022-11-29T19:38:40.562Z,96.16
2022-11-29T19:43:45.118Z,96.51
2022-11-29T19:48:49.258Z,96.97
2022-11-29T19:53:55.124Z,96.95
2022-11-29T19:59:02.420Z,97.31
2022-11-29T20:04:05.700Z,97.22
2022-11-29T20:09:09.006Z,96.92
2022-11-29T20:14:13.349Z,97.71
2022-11-29T20:19:17.878Z,97.84
2022-11-29T20:24:22.396Z,98.12
2022-11-29T20:29:31.160Z,98.28
2022-11-29T20:34:35.981Z,98.33
2022-11-29T20:39:49.486Z,98.80
2022-11-29T20:44:59.644Z,98.89
2022-11-29T20:50:04.331Z,98.93
2022-11-29T20:55:09.239Z,99.10
2022-11-29T21:00:14.030Z,98.99
2022-11-29T21:05:17.991Z,99.58
2022-11-29T21:10:23.239Z,99.38
2022-11-29T21:15:27.991Z,99.33
2022-11-29T21:20:31.810Z,99.46
2022-11-29T21:25:44.465Z,99.73
2022-11-29T21:30:47.867Z,99.52
2022-11-29T21:35:55.232Z,99.39
2022-11-29T21:40:58.712Z,99.45
2022-11-29T21:46:02.291Z,99.42
2022-11-29T21:51:08.424Z,99.49
2022-11-29T21:56:12.410Z,98.58
2022-11-29T22:01:20.036Z,98.12
2022-11-29T22:06:24.500Z,96.57
2022-11-29T22:11:37.124Z,96.37
2022-11-29T22:16:49.566Z,96.61
2022-11-29T22:22:00.206Z,96.40
2022-11-29T22:27:04.070Z,97.40
2022-11-29T22:32:07.244Z,96.36
2022-11-29T22:37:12.665Z,95.67
2022-11-29T22:42:15.807Z,96.12
2022-11-29T22:47:19.456Z,96.18
2022-11-29T22:52:23.114Z,96.58
2022-11-29T22:57:27.071Z,96.92
2022-11-29T23:02:30.577Z,96.94
2022-11-29T23:07:34.493Z,97.11
2022-11-29T23:12:37.817Z,97.48
2022-11-29T23:17:41.367Z,97.59
2022-11-29T23:22:45.092Z,98.07
2022-11-29T23:27:50.950Z,98.02
2022-11-29T23:32:54.310Z,98.01
2022-11-29T23:37:57.671Z,98.34
2022-11-29T23:43:01.450Z,98.43
2022-11-29T23:48:05.521Z,98.71
2022-11-29T23:53:13.510Z,98.88
2022-11-29T23:58:17.071Z,99.08
